Time;durP1;ratioP1;P1;durP2;ratioP2;P2;SDS_P1;SDS_P2;PMS_P1;PMS_P2;Temp;Humidity;BMP_temperature;BMP_pressure;BME280_temperature;BME280_humidity;BME280_pressure;Samples;Min_cycle;Max_cycle;Signal;HPM_P1;HPM_P2
2022/02/08 00:00:04;;;;;;;3.50;2.37;;;;;;;;;;5011177;28;20241;-59
2022/02/08 00:02:34;;;;;;;10.20;2.70;;;;;;;;;;5030675;28;20201;-58
2022/02/08 00:05:00;;;;;;;3.17;2.03;;;;;;;;;;5023933;28;20194;-58
2022/02/08 00:07:31;;;;;;;3.10;2.37;;;;;;;;;;5022990;28;20182;-59
2022/02/08 00:09:57;;;;;;;5.60;2.63;;;;;;;;;;5032739;28;20201;-59
2022/02/08 00:12:27;;;;;;;4.43;2.43;;;;;;;;;;5008361;28;20233;-58
2022/02/08 00:14:54;;;;;;;6.37;2.13;;;;;;;;;;5019526;28;20218;-59
2022/02/08 00:17:21;;;;;;;5.60;2.30;;;;;;;;;;5022980;28;20182;-60
2022/02/08 00:19:50;;;;;;;5.70;2.07;;;;;;;;;;5027957;28;20658;-58
2022/02/08 00:22:16;;;;;;;6.63;2.03;;;;;;;;;;5029237;28;20459;-59
2022/02/08 00:24:45;;;;;;;5.23;2.30;;;;;;;;;;5022789;28;20190;-58
2022/02/08 00:27:12;;;;;;;5.13;2.30;;;;;;;;;;5016647;28;20185;-60
2022/02/08 00:29:38;;;;;;;7.87;2.23;;;;;;;;;;5022083;28;20190;-57
2022/02/08 00:32:06;;;;;;;4.17;1.70;;;;;;;;;;5023745;28;20186;-57
2022/02/08 00:34:35;;;;;;;3.50;1.97;;;;;;;;;;5018552;28;20690;-59
2022/02/08 00:37:02;;;;;;;8.63;2.27;;;;;;;;;;5023410;28;20217;-58
2022/02/08 00:39:33;;;;;;;6.83;2.00;;;;;;;;;;5025933;28;20204;-58
2022/02/08 00:42:08;;;;;;;7.67;2.73;;;;;;;;;;5022858;28;20173;-57
2022/02/08 00:44:46;;;;;;;8.27;2.47;;;;;;;;;;5017808;28;20177;-57
2022/02/08 00:47:24;;;;;;;9.40;3.03;;;;;;;;;;5013923;28;20174;-59
2022/02/08 00:50:04;;;;;;;7.73;2.47;;;;;;;;;;5020547;28;20190;-57
2022/02/08 00:52:33;;;;;;;7.20;2.83;;;;;;;;;;5011758;28;20650;-57
2022/02/08 00:55:00;;;;;;;6.37;2.37;;;;;;;;;;5018055;28;20229;-59
2022/02/08 00:57:26;;;;;;;4.00;1.80;;;;;;;;;;5022126;28;20229;-58
2022/02/08 00:59:52;;;;;;;5.70;2.37;;;;;;;;;;5015231;28;20190;-58
2022/02/08 01:02:21;;;;;;;5.37;2.43;;;;;;;;;;5020419;28;20633;-57
2022/02/08 01:04:57;;;;;;;7.73;2.57;;;;;;;;;;5017860;28;20182;-57
2022/02/08 01:07:27;;;;;;;8.03;3.00;;;;;;;;;;5018235;28;20182;-57
2022/02/08 01:10:01;;;;;;;4.07;2.03;;;;;;;;;;5023039;28;20216;-58
2022/02/08 01:12:32;;;;;;;5.93;2.23;;;;;;;;;;5023256;28;20196;-58
2022/02/08 01:14:59;;;;;;;5.97;1.87;;;;;;;;;;5015135;28;20623;-57
2022/02/08 01:17:28;;;;;;;4.17;2.47;;;;;;;;;;5021200;28;20716;-58
2022/02/08 01:22:26;;;;;;;5.60;2.53;;;;;;;;;;5005341;28;20473;-59
2022/02/08 01:24:52;;;;;;;10.67;3.13;;;;;;;;;;4998319;28;20306;-57
2022/02/08 01:27:29;;;;;;;5.50;2.67;;;;;;;;;;5006468;28;20179;-58
2022/02/08 01:30:01;;;;;;;5.73;2.70;;;;;;;;;;4985373;28;20198;-58
2022/02/08 01:45:49;;;;;;;8.13;3.17;;;;;;;;;;4963846;28;20569;-58
2022/02/08 01:48:29;;;;;;;7.20;3.10;;;;;;;;;;4979607;28;20191;-57
2022/02/08 01:50:55;;;;;;;4.47;2.70;;;;;;;;;;4984884;28;20194;-57
2022/02/08 01:53:25;;;;;;;9.13;2.83;;;;;;;;;;5018950;28;20179;-58
2022/02/08 01:55:51;;;;;;;6.73;2.57;;;;;;;;;;4987356;28;20179;-59
2022/02/08 01:58:17;;;;;;;5.23;2.57;;;;;;;;;;4996020;28;20638;-58
2022/02/08 02:00:46;;;;;;;10.10;3.47;;;;;;;;;;5004427;28;20174;-58
2022/02/08 02:03:12;;;;;;;5.17;2.30;;;;;;;;;;5018971;28;20198;-59
2022/02/08 02:05:38;;;;;;;9.20;3.13;;;;;;;;;;4997099;28;20175;-58
2022/02/08 02:08:04;;;;;;;4.83;2.50;;;;;;;;;;5006873;28;20179;-58
2022/02/08 02:10:32;;;;;;;9.23;3.20;;;;;;;;;;4999952;28;20634;-58
2022/02/08 02:13:08;;;;;;;7.27;3.23;;;;;;;;;;5011063;28;20595;-60
2022/02/08 02:15:35;;;;;;;14.53;3.57;;;;;;;;;;5010280;28;20644;-59
2022/02/08 02:18:01;;;;;;;7.37;3.30;;;;;;;;;;5018834;28;20205;-58
2022/02/08 02:20:29;;;;;;;7.07;3.50;;;;;;;;;;5027531;28;20533;-57
2022/02/08 02:22:56;;;;;;;5.10;2.90;;;;;;;;;;5025679;28;20188;-58
2022/02/08 02:25:29;;;;;;;5.73;2.97;;;;;;;;;;5026309;28;20178;-58
2022/02/08 02:28:01;;;;;;;8.40;3.10;;;;;;;;;;5017302;28;20589;-58
2022/02/08 02:30:32;;;;;;;6.03;2.80;;;;;;;;;;5015168;28;20205;-58
2022/02/08 02:32:59;;;;;;;5.77;2.73;;;;;;;;;;5015124;28;20625;-59
2022/02/08 02:35:26;;;;;;;6.90;2.57;;;;;;;;;;5026580;28;20598;-57
2022/02/08 02:38:00;;;;;;;6.53;2.47;;;;;;;;;;5027975;28;20182;-58
2022/02/08 02:40:27;;;;;;;5.03;2.70;;;;;;;;;;5020171;28;20565;-59
2022/02/08 02:42:54;;;;;;;5.57;2.97;;;;;;;;;;5027244;28;20463;-59
2022/02/08 02:45:23;;;;;;;11.17;2.70;;;;;;;;;;5023367;28;20182;-59
2022/02/08 02:48:10;;;;;;;8.43;3.00;;;;;;;;;;5010186;28;20243;-58
2022/02/08 02:50:38;;;;;;;8.23;2.93;;;;;;;;;;5033246;28;20213;-59
2022/02/08 02:53:04;;;;;;;6.47;3.20;;;;;;;;;;5035006;28;20555;-59
2022/02/08 02:55:33;;;;;;;8.00;3.03;;;;;;;;;;5025641;28;20211;-58
2022/02/08 02:58:00;;;;;;;4.30;3.03;;;;;;;;;;5015807;28;20677;-59
2022/02/08 03:00:40;;;;;;;10.17;3.30;;;;;;;;;;5021636;28;20185;-59
2022/02/08 03:19:42;;;;;;;7.43;3.03;;;;;;;;;;5024457;28;20621;-59
2022/02/08 03:22:11;;;;;;;6.33;2.90;;;;;;;;;;5012536;28;20178;-58
2022/02/08 03:24:37;;;;;;;6.73;3.27;;;;;;;;;;5019520;28;20182;-58
2022/02/08 03:27:04;;;;;;;10.20;3.10;;;;;;;;;;5010631;28;20214;-59
2022/02/08 03:29:30;;;;;;;7.87;3.30;;;;;;;;;;5009454;28;20185;-58
2022/02/08 03:31:57;;;;;;;4.03;2.97;;;;;;;;;;5000306;28;20287;-58
2022/02/08 03:34:23;;;;;;;6.77;3.57;;;;;;;;;;5023837;28;20210;-58
2022/02/08 03:36:50;;;;;;;15.03;3.63;;;;;;;;;;5008923;28;20582;-60
2022/02/08 03:39:21;;;;;;;5.40;3.30;;;;;;;;;;5022087;28;20185;-58
2022/02/08 03:41:53;;;;;;;5.87;3.83;;;;;;;;;;5023523;28;20178;-59
2022/02/08 03:44:30;;;;;;;3.83;3.07;;;;;;;;;;5026890;28;20570;-59
2022/02/08 03:46:57;;;;;;;8.73;4.10;;;;;;;;;;5022827;28;20178;-57
2022/02/08 03:49:24;;;;;;;4.83;3.23;;;;;;;;;;5009581;28;20633;-58
2022/02/08 03:51:58;;;;;;;6.87;3.70;;;;;;;;;;5032221;28;20297;-59
2022/02/08 03:54:29;;;;;;;5.60;3.60;;;;;;;;;;5009684;28;20204;-58
2022/02/08 03:56:59;;;;;;;8.83;4.23;;;;;;;;;;5010697;28;20600;-60
2022/02/08 03:59:28;;;;;;;6.23;3.30;;;;;;;;;;5014766;28;20668;-58
2022/02/08 04:07:35;;;;;;;6.27;3.87;;;;;;;;;;5028211;28;20422;-59
2022/02/08 04:10:05;;;;;;;4.17;3.20;;;;;;;;;;5023364;28;20225;-58
2022/02/08 04:12:40;;;;;;;6.80;3.80;;;;;;;;;;5023044;28;20185;-57
2022/02/08 04:18:18;;;;;;;7.17;4.10;;;;;;;;;;5002394;28;20208;-58
2022/02/08 04:34:44;;;;;;;10.47;4.70;;;;;;;;;;5020356;28;20282;-58
2022/02/08 04:50:22;;;;;;;9.30;4.73;;;;;;;;;;5021983;28;20184;-59
2022/02/08 04:52:55;;;;;;;4.87;3.80;;;;;;;;;;5004540;28;20189;-58
2022/02/08 04:58:12;;;;;;;5.53;4.30;;;;;;;;;;5027963;28;20226;-57
2022/02/08 05:00:56;;;;;;;5.20;4.13;;;;;;;;;;5024555;28;20678;-59
2022/02/08 05:42:07;;;;;;;14.27;4.27;;;;;;;;;;5037498;28;20257;-58
2022/02/08 05:44:45;;;;;;;5.63;4.60;;;;;;;;;;5018724;28;20178;-58
2022/02/08 05:47:11;;;;;;;4.27;3.70;;;;;;;;;;5014763;28;20193;-59
2022/02/08 05:49:42;;;;;;;5.90;4.37;;;;;;;;;;5002525;28;20182;-58
2022/02/08 05:54:39;;;;;;;5.00;4.50;;;;;;;;;;5007457;28;20214;-58
2022/02/08 05:57:06;;;;;;;4.77;4.30;;;;;;;;;;5027793;28;20222;-57
2022/02/08 05:59:36;;;;;;;5.00;4.20;;;;;;;;;;5011760;28;20668;-59
2022/02/08 06:02:04;;;;;;;7.37;4.70;;;;;;;;;;5018094;28;20197;-59
2022/02/08 06:04:36;;;;;;;7.67;4.67;;;;;;;;;;5018692;28;20565;-59
2022/02/08 06:07:05;;;;;;;4.93;4.07;;;;;;;;;;5020885;28;20178;-60
2022/02/08 06:09:32;;;;;;;5.40;4.53;;;;;;;;;;4997398;28;20702;-59
2022/02/08 06:11:58;;;;;;;5.70;4.60;;;;;;;;;;5020386;28;20201;-59
2022/02/08 06:14:27;;;;;;;7.23;4.47;;;;;;;;;;5027767;28;20714;-58
2022/02/08 06:16:54;;;;;;;6.57;4.47;;;;;;;;;;5012491;28;20557;-58
2022/02/08 06:19:23;;;;;;;5.53;4.80;;;;;;;;;;5027961;28;20200;-59
2022/02/08 06:21:50;;;;;;;4.93;4.47;;;;;;;;;;5029114;28;20568;-59
2022/02/08 06:24:20;;;;;;;5.70;4.37;;;;;;;;;;5048356;28;20261;-59
2022/02/08 06:26:55;;;;;;;9.20;4.83;;;;;;;;;;5011124;28;20343;-60
2022/02/08 06:29:23;;;;;;;4.83;4.23;;;;;;;;;;5020716;28;20181;-60
2022/02/08 06:31:50;;;;;;;5.10;4.60;;;;;;;;;;5016582;28;20178;-58
2022/02/08 06:34:22;;;;;;;7.57;5.27;;;;;;;;;;5037826;28;20214;-58
2022/02/08 06:36:58;;;;;;;5.07;4.57;;;;;;;;;;5039264;28;20683;-58
2022/02/08 06:39:31;;;;;;;8.70;5.27;;;;;;;;;;5044925;28;20174;-58
2022/02/08 06:41:57;;;;;;;5.17;4.73;;;;;;;;;;5043859;28;20537;-60
2022/02/08 06:44:24;;;;;;;4.47;4.07;;;;;;;;;;5023397;28;20179;-58
2022/02/08 06:46:50;;;;;;;5.30;4.20;;;;;;;;;;5046519;28;20197;-58
2022/02/08 06:49:20;;;;;;;4.77;4.37;;;;;;;;;;5034253;28;20235;-59
2022/02/08 06:51:49;;;;;;;5.10;4.60;;;;;;;;;;5030589;28;20181;-58
2022/02/08 06:54:15;;;;;;;5.77;4.70;;;;;;;;;;5027630;28;20201;-58
2022/02/08 06:56:48;;;;;;;4.70;4.30;;;;;;;;;;5043394;28;20688;-57
2022/02/08 06:59:17;;;;;;;6.83;4.40;;;;;;;;;;5045436;28;20211;-58
2022/02/08 07:01:45;;;;;;;5.10;4.70;;;;;;;;;;5022376;28;20181;-59
2022/02/08 07:04:14;;;;;;;4.63;4.23;;;;;;;;;;5025617;28;20308;-58
2022/02/08 07:06:51;;;;;;;5.97;4.87;;;;;;;;;;5048128;28;20189;-58
2022/02/08 07:09:24;;;;;;;4.90;4.40;;;;;;;;;;5054251;28;20180;-59
2022/02/08 07:11:56;;;;;;;7.07;4.33;;;;;;;;;;5025720;28;20185;-57
2022/02/08 07:14:28;;;;;;;8.93;5.03;;;;;;;;;;5023766;28;20205;-58
2022/02/08 07:16:57;;;;;;;6.40;4.80;;;;;;;;;;5038846;28;20654;-58
2022/02/08 07:19:23;;;;;;;4.70;4.30;;;;;;;;;;5030973;28;20223;-59
2022/02/08 07:21:56;;;;;;;6.60;4.93;;;;;;;;;;5027822;28;20180;-58
2022/02/08 07:24:30;;;;;;;6.03;4.67;;;;;;;;;;5018241;28;20656;-58
2022/02/08 07:26:56;;;;;;;9.10;5.30;;;;;;;;;;5022591;28;20173;-58
2022/02/08 07:29:29;;;;;;;6.63;4.27;;;;;;;;;;5019699;28;20188;-59
2022/02/08 07:32:06;;;;;;;6.40;4.93;;;;;;;;;;5018965;28;20177;-58
2022/02/08 07:34:47;;;;;;;5.40;4.67;;;;;;;;;;5037986;28;20585;-58
2022/02/08 07:37:22;;;;;;;7.27;4.83;;;;;;;;;;5054046;28;20910;-59
2022/02/08 07:40:02;;;;;;;5.53;4.70;;;;;;;;;;5049410;28;20948;-59
2022/02/08 07:42:32;;;;;;;5.57;4.00;;;;;;;;;;5049250;28;20662;-59
2022/02/08 07:45:00;;;;;;;7.83;4.93;;;;;;;;;;5038870;28;20220;-59
2022/02/08 07:47:35;;;;;;;5.80;5.10;;;;;;;;;;5032953;28;20253;-59
2022/02/08 07:50:04;;;;;;;5.90;4.00;;;;;;;;;;5009583;28;20208;-59
2022/02/08 07:52:31;;;;;;;5.37;4.33;;;;;;;;;;5050428;28;20680;-58
2022/02/08 07:54:57;;;;;;;5.17;4.40;;;;;;;;;;5019553;28;20534;-58
2022/02/08 07:57:23;;;;;;;4.83;4.40;;;;;;;;;;5019750;28;20696;-57
2022/02/08 07:59:52;;;;;;;4.50;4.10;;;;;;;;;;5009888;28;20549;-59
2022/02/08 08:02:22;;;;;;;5.47;4.77;;;;;;;;;;5012880;28;20240;-60
2022/02/08 08:04:48;;;;;;;7.23;4.70;;;;;;;;;;5020227;28;20201;-59
2022/02/08 08:07:17;;;;;;;6.57;4.73;;;;;;;;;;5027015;28;20494;-59
2022/02/08 08:09:44;;;;;;;6.37;4.53;;;;;;;;;;5026739;28;20613;-59
2022/02/08 08:12:13;;;;;;;7.23;5.10;;;;;;;;;;5025362;28;20236;-58
2022/02/08 08:14:40;;;;;;;5.83;4.77;;;;;;;;;;5024330;28;20218;-59
2022/02/08 08:19:51;;;;;;;9.10;5.70;;;;;;;;;;5034971;28;20678;-57
2022/02/08 08:22:18;;;;;;;8.17;4.77;;;;;;;;;;5018173;28;20544;-59
2022/02/08 08:24:44;;;;;;;7.30;6.40;;;;;;;;;;5025646;28;20785;-59
2022/02/08 08:27:14;;;;;;;8.47;5.77;;;;;;;;;;5032652;28;20635;-59
2022/02/08 08:29:44;;;;;;;9.17;6.40;;;;;;;;;;5023450;28;20178;-60
2022/02/08 08:32:10;;;;;;;7.07;5.83;;;;;;;;;;4993785;28;20353;-58
2022/02/08 08:34:40;;;;;;;6.97;6.27;;;;;;;;;;5040965;28;20247;-58
2022/02/08 08:37:12;;;;;;;8.77;6.87;;;;;;;;;;5024582;28;21037;-58
2022/02/08 08:39:47;;;;;;;8.35;7.38;;;;;;;;;;5020233;28;20437;-58
2022/02/08 08:42:36;;;;;;;6.93;5.83;;;;;;;;;;5024121;28;20182;-59
2022/02/08 08:50:56;;;;;;;9.27;6.97;;;;;;;;;;5011994;28;20189;-58
2022/02/08 08:53:24;;;;;;;8.63;7.00;;;;;;;;;;5026174;28;20228;-58
2022/02/08 08:55:50;;;;;;;9.03;6.90;;;;;;;;;;5027306;28;20648;-59
2022/02/08 08:58:19;;;;;;;7.63;6.43;;;;;;;;;;5034186;28;20656;-58
2022/02/08 09:00:48;;;;;;;7.67;6.80;;;;;;;;;;5009829;28;20186;-59
2022/02/08 09:03:17;;;;;;;7.57;6.40;;;;;;;;;;5008761;28;20178;-58
2022/02/08 09:05:44;;;;;;;7.47;6.07;;;;;;;;;;5025574;28;20186;-59
2022/02/08 09:08:10;;;;;;;6.47;5.73;;;;;;;;;;5010659;28;20189;-59
2022/02/08 09:10:48;;;;;;;7.20;6.27;;;;;;;;;;5011327;28;20185;-59
2022/02/08 09:13:25;;;;;;;8.57;6.80;;;;;;;;;;5034868;28;20192;-59
2022/02/08 09:29:21;;;;;;;6.60;5.70;;;;;;;;;;5034033;28;20304;-58
2022/02/08 09:32:02;;;;;;;6.67;5.97;;;;;;;;;;5017140;28;20606;-59
2022/02/08 09:34:29;;;;;;;9.47;6.80;;;;;;;;;;5021054;28;20569;-58
2022/02/08 09:36:55;;;;;;;8.33;6.23;;;;;;;;;;5032466;28;20221;-58
2022/02/08 09:39:24;;;;;;;7.20;5.67;;;;;;;;;;5044816;28;20173;-59
2022/02/08 09:41:58;;;;;;;9.40;5.87;;;;;;;;;;5053946;28;20544;-58
2022/02/08 09:44:33;;;;;;;6.93;6.20;;;;;;;;;;5035415;28;20539;-58
2022/02/08 09:47:09;;;;;;;6.43;5.77;;;;;;;;;;5030296;28;20683;-59
2022/02/08 09:49:43;;;;;;;7.33;5.87;;;;;;;;;;5015514;28;20166;-58
2022/02/08 09:52:17;;;;;;;9.73;6.10;;;;;;;;;;5034122;28;20629;-58
2022/02/08 09:54:47;;;;;;;8.20;6.77;;;;;;;;;;5026534;28;20193;-58
2022/02/08 09:57:18;;;;;;;9.73;5.60;;;;;;;;;;5016240;28;20193;-59
2022/02/08 09:59:45;;;;;;;9.40;6.80;;;;;;;;;;5035239;28;21347;-59
2022/02/08 10:02:18;;;;;;;7.03;6.40;;;;;;;;;;5023267;28;20566;-59
2022/02/08 10:04:45;;;;;;;9.97;6.00;;;;;;;;;;5032302;28;20193;-59
2022/02/08 10:07:12;;;;;;;7.60;6.07;;;;;;;;;;5056940;28;20567;-58
2022/02/08 10:09:38;;;;;;;6.97;5.97;;;;;;;;;;5034540;28;20196;-58
2022/02/08 10:12:04;;;;;;;8.03;6.03;;;;;;;;;;5027895;28;20192;-58
2022/02/08 10:22:56;;;;;;;7.10;6.33;;;;;;;;;;5033856;28;20352;-58
2022/02/08 10:25:47;;;;;;;8.43;6.37;;;;;;;;;;5034639;28;20206;-59
2022/02/08 10:28:32;;;;;;;10.33;6.83;;;;;;;;;;5025946;28;20205;-58
2022/02/08 10:39:04;;;;;;;9.87;5.50;;;;;;;;;;5030132;28;20188;-60
2022/02/08 10:41:34;;;;;;;6.97;5.17;;;;;;;;;;5030394;28;20173;-58
2022/02/08 10:44:10;;;;;;;8.47;5.73;;;;;;;;;;5013204;28;20185;-58
2022/02/08 10:46:42;;;;;;;6.57;5.40;;;;;;;;;;5030296;28;20162;-58
2022/02/08 10:49:12;;;;;;;9.10;5.77;;;;;;;;;;5046834;28;20586;-59
2022/02/08 10:51:48;;;;;;;9.43;6.07;;;;;;;;;;5036032;28;20281;-59
2022/02/08 10:54:39;;;;;;;9.13;7.00;;;;;;;;;;5014535;28;20197;-58
2022/02/08 10:57:17;;;;;;;7.83;5.67;;;;;;;;;;5025388;28;20696;-59
2022/02/08 10:59:59;;;;;;;9.63;5.93;;;;;;;;;;5030202;28;20190;-58
2022/02/08 11:02:30;;;;;;;6.87;5.60;;;;;;;;;;5010344;28;20170;-60
2022/02/08 11:05:12;;;;;;;10.73;5.00;;;;;;;;;;5030598;28;20184;-58
2022/02/08 11:10:23;;;;;;;7.80;5.20;;;;;;;;;;5030413;28;20186;-58
2022/02/08 11:13:15;;;;;;;5.70;5.07;;;;;;;;;;5010951;28;20185;-59
2022/02/08 11:15:58;;;;;;;5.50;4.63;;;;;;;;;;5011706;28;20249;-59
2022/02/08 11:18:35;;;;;;;7.70;4.97;;;;;;;;;;5030524;28;20184;-58
2022/02/08 11:24:04;;;;;;;5.97;4.60;;;;;;;;;;5030165;28;20205;-58
2022/02/08 11:26:35;;;;;;;6.23;4.80;;;;;;;;;;5029686;28;20613;-58
2022/02/08 11:29:18;;;;;;;7.70;5.27;;;;;;;;;;5028468;28;20288;-58
2022/02/08 11:31:51;;;;;;;7.63;4.17;;;;;;;;;;5028347;28;20208;-58
2022/02/08 11:54:58;;;;;;;6.17;4.47;;;;;;;;;;5028848;28;20763;-58
2022/02/08 12:05:30;;;;;;;5.00;3.30;;;;;;;;;;5029671;28;20192;-58
2022/02/08 12:08:00;;;;;;;6.67;3.80;;;;;;;;;;5026478;28;20260;-59
2022/02/08 12:11:37;;;;;;;5.23;3.47;;;;;;;;;;5015246;28;20630;-58
2022/02/08 12:33:00;;;;;;;11.07;3.37;;;;;;;;;;5026490;28;20189;-60
2022/02/08 12:52:35;;;;;;;3.40;2.40;;;;;;;;;;5030699;28;20196;-59
2022/02/08 13:00:06;;;;;;;6.97;3.27;;;;;;;;;;5044050;28;21973;-60
2022/02/08 13:20:09;;;;;;;3.67;2.50;;;;;;;;;;5039586;28;20227;-58
2022/02/08 14:01:47;;;;;;;2.53;2.13;;;;;;;;;;5040381;28;20196;-59
2022/02/08 14:09:48;;;;;;;2.43;1.87;;;;;;;;;;5033198;28;20245;-59
2022/02/08 14:13:06;;;;;;;4.53;2.30;;;;;;;;;;5043772;28;20526;-59
2022/02/08 14:18:02;;;;;;;4.00;1.93;;;;;;;;;;5041547;28;20244;-58
2022/02/08 14:23:28;;;;;;;6.50;2.20;;;;;;;;;;5032569;28;20184;-58
2022/02/08 14:34:43;;;;;;;4.40;2.10;;;;;;;;;;5027456;28;20209;-59
2022/02/08 14:48:47;;;;;;;3.97;2.20;;;;;;;;;;5030876;28;20790;-59
2022/02/08 15:10:25;;;;;;;3.00;2.00;;;;;;;;;;5028839;28;20255;-58
2022/02/08 15:12:58;;;;;;;5.17;3.17;;;;;;;;;;5017321;28;20177;-59
2022/02/08 15:16:19;;;;;;;3.63;2.00;;;;;;;;;;5043086;28;20245;-58
2022/02/08 15:18:11;;;;;;;3.87;2.13;;;;;;;;;;5024831;28;20185;-59
2022/02/08 15:20:40;;;;;;;4.03;2.07;;;;;;;;;;5011865;28;20695;-59
2022/02/08 15:23:11;;;;;;;4.03;2.50;;;;;;;;;;5018718;28;20534;-59
2022/02/08 15:25:38;;;;;;;5.03;1.80;;;;;;;;;;5015402;28;20181;-60
2022/02/08 15:28:05;;;;;;;3.23;2.07;;;;;;;;;;5033883;28;20174;-59
2022/02/08 15:30:35;;;;;;;6.00;1.93;;;;;;;;;;5039344;28;20173;-58
2022/02/08 15:33:05;;;;;;;4.30;2.20;;;;;;;;;;5010651;28;20514;-59
2022/02/08 15:35:35;;;;;;;5.20;2.37;;;;;;;;;;5026121;28;20288;-58
2022/02/08 15:38:01;;;;;;;5.40;2.00;;;;;;;;;;5008249;28;20553;-58
2022/02/08 15:40:27;;;;;;;3.00;1.97;;;;;;;;;;5026102;28;20668;-60
2022/02/08 15:42:53;;;;;;;3.47;2.30;;;;;;;;;;5030648;28;20189;-58
2022/02/08 15:45:25;;;;;;;3.77;2.60;;;;;;;;;;5018808;28;20272;-58
2022/02/08 15:47:54;;;;;;;3.97;2.30;;;;;;;;;;5033978;28;20655;-59
2022/02/08 15:50:31;;;;;;;2.67;1.70;;;;;;;;;;5029253;28;20209;-59
2022/02/08 15:53:11;;;;;;;2.73;2.03;;;;;;;;;;5042721;28;20667;-58
2022/02/08 16:01:00;;;;;;;5.27;2.23;;;;;;;;;;5032822;28;20272;-62
2022/02/08 16:06:50;;;;;;;3.03;1.60;;;;;;;;;;5026896;28;20223;-60
2022/02/08 16:09:06;;;;;;;5.80;2.07;;;;;;;;;;5030142;28;20567;-60
2022/02/08 16:17:05;;;;;;;3.43;2.17;;;;;;;;;;5028268;28;20185;-60
2022/02/08 16:19:55;;;;;;;4.33;2.30;;;;;;;;;;5012759;28;20220;-60
2022/02/08 16:52:40;;;;;;;5.27;2.53;;;;;;;;;;5023374;28;20668;-59
2022/02/08 16:55:54;;;;;;;2.93;2.00;;;;;;;;;;5023369;28;20229;-59
2022/02/08 16:58:23;;;;;;;3.27;2.37;;;;;;;;;;5017898;28;20717;-60
2022/02/08 17:00:53;;;;;;;2.23;1.93;;;;;;;;;;5032859;28;20204;-62
2022/02/08 17:03:26;;;;;;;3.70;2.17;;;;;;;;;;5018490;28;20181;-61
2022/02/08 17:06:02;;;;;;;3.93;2.50;;;;;;;;;;5025824;28;20189;-60
2022/02/08 17:08:31;;;;;;;4.43;2.90;;;;;;;;;;5029201;28;20181;-61
2022/02/08 17:11:00;;;;;;;5.70;2.70;;;;;;;;;;5015741;28;20181;-60
2022/02/08 17:13:39;;;;;;;3.20;2.67;;;;;;;;;;5031826;28;20177;-60
2022/02/08 17:16:15;;;;;;;3.87;2.90;;;;;;;;;;4996278;28;20282;-60
2022/02/08 17:19:08;;;;;;;4.63;2.50;;;;;;;;;;5005670;28;20518;-62
2022/02/08 17:34:36;;;;;;;2.60;2.40;;;;;;;;;;5006072;28;20190;-61
2022/02/08 17:46:20;;;;;;;4.43;2.60;;;;;;;;;;5011031;28;20181;-58
2022/02/08 17:48:47;;;;;;;6.47;3.00;;;;;;;;;;4989728;28;20657;-61
2022/02/08 17:51:24;;;;;;;4.40;2.57;;;;;;;;;;5011584;28;20214;-62
2022/02/08 17:53:53;;;;;;;4.83;2.50;;;;;;;;;;5009741;28;20176;-61
2022/02/08 17:56:23;;;;;;;3.73;2.20;;;;;;;;;;5011125;28;20297;-61
2022/02/08 17:58:52;;;;;;;4.70;2.97;;;;;;;;;;4998482;28;20182;-61
2022/02/08 18:01:20;;;;;;;4.00;2.10;;;;;;;;;;4995936;28;20610;-58
2022/02/08 18:03:46;;;;;;;3.37;2.13;;;;;;;;;;5009627;28;20273;-62
2022/02/08 18:06:12;;;;;;;5.37;2.20;;;;;;;;;;4988726;28;20172;-63
2022/02/08 18:08:40;;;;;;;2.30;2.10;;;;;;;;;;4991514;28;20662;-62
2022/02/08 18:11:06;;;;;;;2.83;2.23;;;;;;;;;;5001928;28;20214;-63
2022/02/08 18:13:38;;;;;;;2.40;2.20;;;;;;;;;;5011792;28;20186;-63
2022/02/08 18:16:14;;;;;;;5.40;2.40;;;;;;;;;;5025562;28;20213;-63
2022/02/08 18:19:18;;;;;;;3.20;2.50;;;;;;;;;;5025514;28;20269;-63
2022/02/08 18:21:58;;;;;;;1.80;1.70;;;;;;;;;;5043307;28;20509;-63
2022/02/08 18:25:30;;;;;;;2.10;1.90;;;;;;;;;;5011780;28;20341;-62
2022/02/08 18:55:52;;;;;;;5.03;2.63;;;;;;;;;;5030800;28;20190;-62
2022/02/08 18:58:02;;;;;;;2.70;2.23;;;;;;;;;;5030094;28;20205;-62
2022/02/08 19:15:07;;;;;;;3.33;2.30;;;;;;;;;;5034650;28;20243;-61
2022/02/08 19:22:57;;;;;;;3.77;2.10;;;;;;;;;;5015575;28;20229;-61
2022/02/08 19:25:26;;;;;;;3.33;2.40;;;;;;;;;;5003078;28;20170;-61
2022/02/08 19:27:58;;;;;;;2.63;2.40;;;;;;;;;;5009925;28;20579;-61
2022/02/08 19:30:27;;;;;;;3.17;2.53;;;;;;;;;;5004452;28;20741;-61
2022/02/08 19:33:02;;;;;;;4.77;3.90;;;;;;;;;;5005104;28;20186;-61
2022/02/08 19:35:29;;;;;;;4.43;2.73;;;;;;;;;;5013766;28;20210;-61
2022/02/08 19:37:55;;;;;;;3.60;2.50;;;;;;;;;;4997560;28;20232;-61
2022/02/08 19:40:27;;;;;;;6.57;3.00;;;;;;;;;;5004715;28;20674;-61
2022/02/08 19:42:56;;;;;;;4.60;2.70;;;;;;;;;;5016281;28;20213;-61
2022/02/08 19:45:27;;;;;;;4.43;2.47;;;;;;;;;;4998132;28;20675;-61
2022/02/08 19:47:53;;;;;;;2.90;2.50;;;;;;;;;;5002621;28;20200;-61
2022/02/08 19:50:20;;;;;;;4.27;2.60;;;;;;;;;;5007117;28;20543;-61
2022/02/08 19:53:07;;;;;;;4.83;2.63;;;;;;;;;;5006629;28;20243;-61
2022/02/08 19:56:02;;;;;;;2.67;2.47;;;;;;;;;;5017403;28;20503;-61
2022/02/08 19:58:31;;;;;;;3.10;2.67;;;;;;;;;;5031195;28;20181;-61
2022/02/08 20:04:37;;;;;;;2.43;2.23;;;;;;;;;;5002644;28;20182;-62
2022/02/08 20:06:45;;;;;;;4.20;2.40;;;;;;;;;;4987789;28;20715;-61
2022/02/08 20:09:16;;;;;;;2.67;2.23;;;;;;;;;;5005584;28;20183;-61
2022/02/08 20:11:43;;;;;;;2.63;2.13;;;;;;;;;;5006236;28;20691;-61
2022/02/08 20:14:44;;;;;;;3.00;2.53;;;;;;;;;;4990468;28;20557;-61
2022/02/08 20:17:19;;;;;;;3.83;2.53;;;;;;;;;;5000518;28;20194;-61
2022/02/08 20:22:44;;;;;;;3.70;2.53;;;;;;;;;;5013713;28;20233;-61
2022/02/08 20:25:10;;;;;;;4.10;2.50;;;;;;;;;;5019749;28;20232;-60
2022/02/08 20:27:50;;;;;;;4.03;2.50;;;;;;;;;;5029345;28;20185;-60
2022/02/08 20:30:25;;;;;;;2.70;2.40;;;;;;;;;;5008137;28;20206;-61
2022/02/08 20:32:53;;;;;;;3.47;2.67;;;;;;;;;;5000463;28;20738;-60
2022/02/08 20:35:24;;;;;;;7.53;2.57;;;;;;;;;;4997701;28;20270;-61
2022/02/08 20:37:53;;;;;;;4.53;2.60;;;;;;;;;;4978825;28;20194;-61
2022/02/08 20:40:22;;;;;;;2.50;2.30;;;;;;;;;;4998418;28;20265;-61
2022/02/08 20:43:01;;;;;;;2.40;2.07;;;;;;;;;;5002591;28;20641;-61
2022/02/08 20:45:31;;;;;;;4.67;2.30;;;;;;;;;;5011146;28;20174;-61
2022/02/08 20:48:13;;;;;;;2.60;2.40;;;;;;;;;;5024400;28;20588;-61
2022/02/08 20:50:46;;;;;;;2.63;2.30;;;;;;;;;;4992468;28;20689;-61
2022/02/08 20:53:34;;;;;;;4.10;2.50;;;;;;;;;;4970757;28;20650;-61
2022/02/08 20:56:09;;;;;;;4.03;2.60;;;;;;;;;;4991152;28;20733;-60
2022/02/08 21:01:40;;;;;;;4.10;2.27;;;;;;;;;;4981931;28;20186;-61
2022/02/08 21:06:44;;;;;;;2.93;2.50;;;;;;;;;;5004675;28;20185;-61
2022/02/08 21:09:13;;;;;;;3.83;2.37;;;;;;;;;;5010662;28;20285;-60
2022/02/08 21:11:48;;;;;;;4.57;2.33;;;;;;;;;;5007590;28;20261;-61
2022/02/08 21:14:14;;;;;;;3.30;2.43;;;;;;;;;;5009165;28;20640;-61
2022/02/08 21:16:44;;;;;;;4.03;2.57;;;;;;;;;;5011554;28;20217;-61
2022/02/08 21:19:29;;;;;;;3.13;2.50;;;;;;;;;;5011857;28;20179;-61
2022/02/08 21:21:56;;;;;;;2.30;2.10;;;;;;;;;;4990328;28;20344;-60
2022/02/08 21:24:23;;;;;;;2.40;2.20;;;;;;;;;;4987391;28;20684;-61
2022/02/08 21:26:53;;;;;;;2.40;2.20;;;;;;;;;;5008603;28;20197;-61
2022/02/08 21:51:54;;;;;;;2.73;2.20;;;;;;;;;;5010509;28;20207;-61
2022/02/08 21:54:28;;;;;;;2.60;2.40;;;;;;;;;;4989974;28;20190;-60
2022/02/08 21:56:57;;;;;;;4.40;2.10;;;;;;;;;;5006914;28;20194;-61
2022/02/08 21:59:32;;;;;;;2.77;2.27;;;;;;;;;;4989772;28;20190;-60
2022/02/08 22:01:58;;;;;;;1.90;1.80;;;;;;;;;;5012224;28;20201;-61
2022/02/08 22:04:31;;;;;;;3.00;1.80;;;;;;;;;;4987045;28;20210;-61
2022/02/08 22:07:13;;;;;;;2.57;2.20;;;;;;;;;;4988105;28;20197;-61
2022/02/08 22:09:55;;;;;;;3.53;2.00;;;;;;;;;;5009166;28;20638;-61
2022/02/08 22:29:17;;;;;;;3.10;2.57;;;;;;;;;;5027221;28;20193;-60
2022/02/08 22:32:09;;;;;;;5.73;2.37;;;;;;;;;;5030437;28;20611;-60
2022/02/08 22:37:12;;;;;;;3.40;2.00;;;;;;;;;;5036522;28;20216;-60
2022/02/08 22:39:52;;;;;;;2.13;2.03;;;;;;;;;;5025543;28;20634;-61
2022/02/08 22:42:32;;;;;;;2.30;2.07;;;;;;;;;;5031171;28;20617;-61
2022/02/08 22:44:59;;;;;;;3.27;2.47;;;;;;;;;;5014250;28;20779;-60
2022/02/08 22:47:26;;;;;;;3.60;2.47;;;;;;;;;;5026450;28;20186;-60
2022/02/08 22:49:52;;;;;;;3.63;2.33;;;;;;;;;;5031055;28;20307;-60
2022/02/08 22:52:31;;;;;;;2.77;2.30;;;;;;;;;;5032573;28;20743;-60
2022/02/08 22:54:57;;;;;;;2.80;2.50;;;;;;;;;;5036987;28;20237;-60
2022/02/08 22:57:26;;;;;;;2.67;2.30;;;;;;;;;;5044639;28;20633;-60
2022/02/08 22:59:55;;;;;;;5.13;2.67;;;;;;;;;;4997939;28;20180;-60
2022/02/08 23:02:25;;;;;;;4.80;2.50;;;;;;;;;;5032594;28;20534;-61
2022/02/08 23:04:54;;;;;;;5.53;2.87;;;;;;;;;;5020420;28;20195;-60
2022/02/08 23:07:26;;;;;;;3.40;2.77;;;;;;;;;;5012806;28;20262;-61
2022/02/08 23:10:06;;;;;;;3.93;2.87;;;;;;;;;;5012351;28;20276;-60
2022/02/08 23:38:07;;;;;;;3.37;3.07;;;;;;;;;;5021138;28;20220;-60
2022/02/08 23:40:39;;;;;;;2.97;2.77;;;;;;;;;;5019653;28;20612;-60
2022/02/08 23:43:17;;;;;;;3.60;3.03;;;;;;;;;;5015824;28;20196;-60
2022/02/08 23:45:49;;;;;;;3.10;2.80;;;;;;;;;;5012768;28;20247;-60
2022/02/08 23:48:23;;;;;;;3.57;2.60;;;;;;;;;;5028198;28;20170;-61
2022/02/08 23:51:18;;;;;;;4.17;2.57;;;;;;;;;;5033142;28;20207;-61
2022/02/08 23:54:09;;;;;;;4.03;2.73;;;;;;;;;;5015480;28;20189;-60
2022/02/08 23:56:53;;;;;;;4.70;3.13;;;;;;;;;;5025469;28;20747;-60